Tiempo atmosférico en la estación meteorológica de Cazorla Ii, Jaén (799 m.)

Fecha
DESCASC
Temp. máxima en grados centígrados (hora)
DESCASC
Temp. mínima en grados centígrados (hora)
DESCASC
Temp. media en grados centígrados
DESCASC
Racha de viento máxima en m/sg (hora)
DESCASC
Velocidad máxima media en intervalos de 10 minutos(hora)
DESCASC
Precipitaciones diarias en mm
DESCASC
Precipitaciones de 00:00 a 06:00 en mm
DESCASC
Precipitaciones de 06:00 a 12:00 en mm
DESCASC
Precipitaciones de 12:00 a 18:00 en mm
DESCASC
Precipitaciones de 18:00 a 24:00 en mm
DESCASC

Gráficas

Temp. máximas Temp. mínimas Temp. medias Precipitaciones Rachas de viento máximas Velocidades máximas media en intervalos de 10 minutos

Datos horarios

Fecha y hora oficial Temperatura (ºC) Velocidad del viento (km/h) Dirección del viento Racha (km/h) Dirección de racha Precipitación (mm) Presión (hPa) Tendencia (hPa) Humedad (%)
2017-10-20 10:00:00 -- -- -- -- -- -- -- -- --
2017-10-20 09:00:00 -- -- -- -- -- -- -- -- --
2017-10-20 08:00:00 13.1 -- -- -- -- 0 -- -- 84
2017-10-20 07:00:00 13 -- -- -- -- 0 -- -- 82
2017-10-20 06:00:00 13.1 -- -- -- -- 0 -- -- 78
2017-10-20 05:00:00 13.1 -- -- -- -- 0 -- -- 73
2017-10-20 04:00:00 13 -- -- -- -- 0 -- -- 72
2017-10-20 03:00:00 12.6 -- -- -- -- 0 -- -- 75
2017-10-20 02:00:00 11.8 -- -- -- -- 0 -- -- 81
2017-10-20 01:00:00 11.7 -- -- -- -- 0 -- -- 83
2017-10-20 00:00:00 12.2 -- -- -- -- 0 -- -- 87
2017-10-19 23:00:00 12.9 -- -- -- -- 0 -- -- 83
2017-10-19 22:00:00 13.6 -- -- -- -- 0 -- -- 78
2017-10-19 21:00:00 13.9 -- -- -- -- 0 -- -- 74
2017-10-19 20:00:00 14.2 -- -- -- -- 0 -- -- 74
2017-10-19 19:00:00 14.9 -- -- -- -- 0 -- -- 67
2017-10-19 18:00:00 15.4 -- -- -- -- 0 -- -- 63
2017-10-19 17:00:00 14.6 -- -- -- -- 0 -- -- 65
2017-10-19 16:00:00 14.8 -- -- -- -- 0 -- -- 65
2017-10-19 15:00:00 15.8 -- -- -- -- 0 -- -- 61
2017-10-19 14:00:00 15.6 -- -- -- -- 0 -- -- 65
2017-10-19 13:00:00 13.3 -- -- -- -- 0 -- -- 75
2017-10-19 12:00:00 11.3 -- -- -- -- 0 -- -- 84
2017-10-19 11:00:00 10.2 -- -- -- -- 0 -- -- 94
2017-10-19 10:00:00 9.7 -- -- -- -- 0 -- -- 96
2017-10-19 09:00:00 9.4 -- -- -- -- 0 -- -- 96
2017-10-19 08:00:00 9.2 -- -- -- -- 0 -- -- 95
2017-10-19 07:00:00 9.6 -- -- -- -- 0.2 -- -- 95
2017-10-19 06:00:00 9.8 -- -- -- -- 3 -- -- 95
2017-10-19 05:00:00 9.9 -- -- -- -- 1 -- -- 94
2017-10-19 04:00:00 10 -- -- -- -- 2.4 -- -- 94
2017-10-19 03:00:00 10.2 -- -- -- -- 4.8 -- -- 94
2017-10-19 02:00:00 10.3 -- -- -- -- 4.2 -- -- 93
2017-10-19 01:00:00 10 -- -- -- -- 5.4 -- -- 91
2017-10-19 00:00:00 12.1 -- -- -- -- 0 -- -- 79
2017-10-18 23:00:00 12.9 -- -- -- -- 0 -- -- 88
2017-10-18 22:00:00 13.1 -- -- -- -- 0 -- -- 89
2017-10-18 21:00:00 13.3 -- -- -- -- 0 -- -- 91
2017-10-18 20:00:00 13.4 -- -- -- -- 0 -- -- 91
2017-10-18 19:00:00 14 -- -- -- -- 0 -- -- 90
2017-10-18 18:00:00 14.6 -- -- -- -- 0 -- -- 87
2017-10-18 17:00:00 14.5 -- -- -- -- 0.2 -- -- 90
2017-10-18 16:00:00 13.8 -- -- -- -- 2 -- -- 90
2017-10-18 15:00:00 13.6 -- -- -- -- 3.8 -- -- 90
2017-10-18 14:00:00 14.1 -- -- -- -- 1.6 -- -- 84
2017-10-18 13:00:00 14.5 -- -- -- -- 0.8 -- -- 82
2017-10-18 12:00:00 14 -- -- -- -- 2 -- -- 79
2017-10-18 11:00:00 13.3 -- -- -- -- 4.6 -- -- 84
2017-10-18 10:00:00 13.8 -- -- -- -- 2.6 -- -- 86
2017-10-18 09:00:00 14.6 -- -- -- -- 0 -- -- 78
2017-10-18 08:00:00 15 -- -- -- -- 0 -- -- 73
2017-10-18 07:00:00 15.1 -- -- -- -- 0 -- -- 71
2017-10-18 06:00:00 16.3 -- -- -- -- 0 -- -- 65
2017-10-18 05:00:00 19.5 -- -- -- -- 0 -- -- 46
2017-10-18 04:00:00 20.5 -- -- -- -- 0 -- -- 40
2017-10-18 03:00:00 17.7 -- -- -- -- 0 -- -- 52
2017-10-18 02:00:00 19.5 -- -- -- -- 0 -- -- 46
2017-10-18 01:00:00 19.6 -- -- -- -- 0 -- -- 46
2017-10-18 00:00:00 20.6 -- -- -- -- 0 -- -- 43
2017-10-17 23:00:00 20.5 -- -- -- -- 0 -- -- 43
2017-10-17 22:00:00 20.2 -- -- -- -- 0 -- -- 43
2017-10-17 21:00:00 19.7 -- -- -- -- 0 -- -- 45
2017-10-17 20:00:00 20.8 -- -- -- -- 0 -- -- 42
2017-10-17 19:00:00 21.4 -- -- -- -- 0 -- -- 40
2017-10-17 18:00:00 21.9 -- -- -- -- 0 -- -- 41
2017-10-17 17:00:00 22.5 -- -- -- -- 0 -- -- 38
2017-10-17 16:00:00 23 -- -- -- -- 0 -- -- 36
2017-10-17 15:00:00 22.7 -- -- -- -- 0 -- -- 46
2017-10-17 14:00:00 22.7 -- -- -- -- 0 -- -- 43
2017-10-17 13:00:00 21.4 -- -- -- -- 0 -- -- 46
2017-10-17 12:00:00 21.3 -- -- -- -- 0 -- -- 45
2017-10-17 11:00:00 18.7 -- -- -- -- 0 -- -- 49
2017-10-17 10:00:00 18.2 -- -- -- -- 0 -- -- 45
2017-10-17 09:00:00 16.7 -- -- -- -- 0 -- -- 46
2017-10-17 08:00:00 15.5 -- -- -- -- 0 -- -- 48
2017-10-17 07:00:00 14.8 -- -- -- -- 0 -- -- 58
2017-10-17 06:00:00 14.8 -- -- -- -- 0 -- -- 65
2017-10-17 05:00:00 15.6 -- -- -- -- 0 -- -- 56
2017-10-17 04:00:00 15.9 -- -- -- -- 0 -- -- 55
2017-10-17 03:00:00 16.3 -- -- -- -- 0 -- -- 55
2017-10-17 02:00:00 17.1 -- -- -- -- 0 -- -- 46
2017-10-17 01:00:00 17.1 -- -- -- -- 0 -- -- 47
2017-10-17 00:00:00 18.7 -- -- -- -- 0 -- -- 46
2017-10-16 23:00:00 20.5 -- -- -- -- 0 -- -- 31
2017-10-16 22:00:00 21.3 -- -- -- -- 0 -- -- 32
2017-10-16 21:00:00 22.2 -- -- -- -- 0 -- -- 37
2017-10-16 20:00:00 22.6 -- -- -- -- 0 -- -- 27
2017-10-16 19:00:00 24.6 -- -- -- -- 0 -- -- 27
2017-10-16 18:00:00 25.7 -- -- -- -- 0 -- -- 25
2017-10-16 17:00:00 26.7 -- -- -- -- 0 -- -- 24
2017-10-16 16:00:00 28.1 -- -- -- -- 0 -- -- 23
2017-10-16 15:00:00 27 -- -- -- -- 0 -- -- 31
2017-10-16 14:00:00 24.5 -- -- -- -- 0 -- -- 38
2017-10-16 13:00:00 20.7 -- -- -- -- 0 -- -- 49
2017-10-16 12:00:00 18 -- -- -- -- 0 -- -- 58
2017-10-16 11:00:00 15.7 -- -- -- -- 0 -- -- 64
2017-10-16 10:00:00 15.1 -- -- -- -- 0 -- -- 61
2017-10-16 09:00:00 15.1 -- -- -- -- 0 -- -- 60
2017-10-16 08:00:00 15.5 -- -- -- -- 0 -- -- 60
2017-10-16 07:00:00 15.2 -- -- -- -- 0 -- -- 63
2017-10-16 06:00:00 15.7 -- -- -- -- 0 -- -- 64
2017-10-16 05:00:00 16.2 -- -- -- -- 0 -- -- 64
2017-10-16 04:00:00 17.7 -- -- -- -- 0 -- -- 50
2017-10-16 03:00:00 18.8 -- -- -- -- 0 -- -- 45
2017-10-16 02:00:00 18.8 -- -- -- -- 0 -- -- 46
2017-10-16 01:00:00 22.1 -- -- -- -- 0 -- -- 31
2017-10-16 00:00:00 22.9 -- -- -- -- 0 -- -- 28
2017-10-15 23:00:00 22.9 -- -- -- -- 0 -- -- 28
2017-10-15 22:00:00 22.8 -- -- -- -- 0 -- -- 34
2017-10-15 21:00:00 23.5 -- -- -- -- 0 -- -- 33
2017-10-15 20:00:00 24.6 -- -- -- -- 0 -- -- 30
2017-10-15 19:00:00 26 -- -- -- -- 0 -- -- 26
2017-10-15 18:00:00 27.1 -- -- -- -- 0 -- -- 25
2017-10-15 17:00:00 28.3 -- -- -- -- 0 -- -- 23
2017-10-15 16:00:00 29.9 -- -- -- -- 0 -- -- 21
2017-10-15 15:00:00 29.8 -- -- -- -- 0 -- -- 25
2017-10-15 14:00:00 27.3 -- -- -- -- 0 -- -- 30
2017-10-15 13:00:00 23.7 -- -- -- -- 0 -- -- 36
2017-10-15 12:00:00 20.9 -- -- -- -- 0 -- -- 41
2017-10-15 11:00:00 18.8 -- -- -- -- 0 -- -- 44
2017-10-15 10:00:00 17.8 -- -- -- -- 0 -- -- 46
2017-10-15 09:00:00 18.6 -- -- -- -- 0 -- -- 42
2017-10-15 08:00:00 18.5 -- -- -- -- 0 -- -- 41
2017-10-15 07:00:00 19.1 -- -- -- -- 0 -- -- 39
2017-10-15 06:00:00 20.4 -- -- -- -- 0 -- -- 37
2017-10-15 05:00:00 20.3 -- -- -- -- 0 -- -- 37
2017-10-15 04:00:00 21 -- -- -- -- 0 -- -- 35
2017-10-15 03:00:00 21 -- -- -- -- 0 -- -- 35
2017-10-15 02:00:00 21.6 -- -- -- -- 0 -- -- 34
2017-10-15 01:00:00 22.3 -- -- -- -- 0 -- -- 33
2017-10-15 00:00:00 22.6 -- -- -- -- 0 -- -- 32
2017-10-14 23:00:00 23.2 -- -- -- -- 0 -- -- 31
2017-10-14 22:00:00 23.4 -- -- -- -- 0 -- -- 31
2017-10-14 21:00:00 24.1 -- -- -- -- 0 -- -- 31
2017-10-14 20:00:00 24.7 -- -- -- -- 0 -- -- 30
2017-10-14 19:00:00 26.4 -- -- -- -- 0 -- -- 29
2017-10-14 18:00:00 28 -- -- -- -- 0 -- -- 26
2017-10-14 17:00:00 28.6 -- -- -- -- 0 -- -- 26
2017-10-14 16:00:00 29.4 -- -- -- -- 0 -- -- 24
2017-10-14 15:00:00 29.5 -- -- -- -- 0 -- -- 24
2017-10-14 14:00:00 28.4 -- -- -- -- 0 -- -- 26
2017-10-14 13:00:00 25.3 -- -- -- -- 0 -- -- 30
2017-10-14 12:00:00 22.9 -- -- -- -- 0 -- -- 36
2017-10-14 11:00:00 21.3 -- -- -- -- 0 -- -- 36
2017-10-14 10:00:00 20.3 -- -- -- -- 0 -- -- 38
2017-10-14 09:00:00 20.1 -- -- -- -- 0 -- -- 38
2017-10-14 08:00:00 20.4 -- -- -- -- 0 -- -- 37
2017-10-14 07:00:00 21 -- -- -- -- 0 -- -- 36
2017-10-14 06:00:00 21.2 -- -- -- -- 0 -- -- 35
2017-10-14 05:00:00 21.5 -- -- -- -- 0 -- -- 33
2017-10-14 04:00:00 21.5 -- -- -- -- 0 -- -- 33
2017-10-14 03:00:00 21.8 -- -- -- -- 0 -- -- 32
2017-10-14 02:00:00 22.2 -- -- -- -- 0 -- -- 31
2017-10-14 01:00:00 22.3 -- -- -- -- 0 -- -- 31
2017-10-14 00:00:00 22.9 -- -- -- -- 0 -- -- 30
2017-10-13 23:00:00 23 -- -- -- -- 0 -- -- 30
2017-10-13 22:00:00 23.2 -- -- -- -- 0 -- -- 30
2017-10-13 21:00:00 23.6 -- -- -- -- 0 -- -- 31
2017-10-13 20:00:00 24.5 -- -- -- -- 0 -- -- 30
2017-10-13 19:00:00 25.7 -- -- -- -- 0 -- -- 31
2017-10-13 18:00:00 26.7 -- -- -- -- 0 -- -- 29
2017-10-13 17:00:00 28.4 -- -- -- -- 0 -- -- 27
2017-10-13 16:00:00 29.8 -- -- -- -- 0 -- -- 24
2017-10-13 15:00:00 31.3 -- -- -- -- 0 -- -- 21
2017-10-13 14:00:00 30.1 -- -- -- -- 0 -- -- 22
2017-10-13 13:00:00 27.2 -- -- -- -- 0 -- -- 26
2017-10-13 12:00:00 24.2 -- -- -- -- 0 -- -- 34
2017-10-13 11:00:00 22.5 -- -- -- -- 0 -- -- 35
2017-10-13 10:00:00 20.9 -- -- -- -- 0 -- -- 37
2017-10-13 09:00:00 20.3 -- -- -- -- 0 -- -- 36
2017-10-13 08:00:00 20.9 -- -- -- -- 0 -- -- 35
2017-10-13 07:00:00 21.2 -- -- -- -- 0 -- -- 34
2017-10-13 06:00:00 20.7 -- -- -- -- 0 -- -- 36
2017-10-13 05:00:00 20.5 -- -- -- -- 0 -- -- 37
2017-10-13 04:00:00 21.1 -- -- -- -- 0 -- -- 36
2017-10-13 03:00:00 21.6 -- -- -- -- 0 -- -- 35
2017-10-13 02:00:00 22.5 -- -- -- -- 0 -- -- 33
2017-10-13 01:00:00 23.3 -- -- -- -- 0 -- -- 32
2017-10-13 00:00:00 23.3 -- -- -- -- 0 -- -- 32
2017-10-12 23:00:00 23.6 -- -- -- -- 0 -- -- 31
2017-10-12 22:00:00 24 -- -- -- -- 0 -- -- 30
2017-10-12 21:00:00 25.1 -- -- -- -- 0 -- -- 28
2017-10-12 20:00:00 25.3 -- -- -- -- 0 -- -- 30
2017-10-12 19:00:00 26.7 -- -- -- -- 0 -- -- 29
2017-10-12 18:00:00 28.1 -- -- -- -- 0 -- -- 25
2017-10-12 17:00:00 29.3 -- -- -- -- 0 -- -- 24
2017-10-12 16:00:00 31.2 -- -- -- -- 0 -- -- 22
2017-10-12 15:00:00 30.1 -- -- -- -- 0 -- -- 24
2017-10-12 14:00:00 28.5 -- -- -- -- 0 -- -- 28
2017-10-12 13:00:00 25.2 -- -- -- -- 0 -- -- 30
2017-10-12 12:00:00 21.7 -- -- -- -- 0 -- -- 39
2017-10-12 11:00:00 21.2 -- -- -- -- 0 -- -- 38
2017-10-12 10:00:00 20.1 -- -- -- -- 0 -- -- 36
2017-10-12 09:00:00 20.9 -- -- -- -- 0 -- -- 33
2017-10-12 08:00:00 19.9 -- -- -- -- 0 -- -- 32
2017-10-12 07:00:00 19.7 -- -- -- -- 0 -- -- 32
2017-10-12 06:00:00 20.3 -- -- -- -- 0 -- -- 30
2017-10-12 05:00:00 20.8 -- -- -- -- 0 -- -- 29
2017-10-12 04:00:00 21.3 -- -- -- -- 0 -- -- 28
2017-10-12 03:00:00 21.1 -- -- -- -- 0 -- -- 30
2017-10-12 02:00:00 21.7 -- -- -- -- 0 -- -- 29
2017-10-12 01:00:00 21.9 -- -- -- -- 0 -- -- 29
2017-10-12 00:00:00 22.3 -- -- -- -- 0 -- -- 28
2017-10-11 23:00:00 22.3 -- -- -- -- 0 -- -- 26
2017-10-11 22:00:00 22.6 -- -- -- -- 0 -- -- 26
2017-10-11 21:00:00 22.9 -- -- -- -- 0 -- -- 26
2017-10-11 20:00:00 24.1 -- -- -- -- 0 -- -- 27
2017-10-11 19:00:00 26.4 -- -- -- -- 0 -- -- 23
2017-10-11 18:00:00 27.3 -- -- -- -- 0 -- -- 21
2017-10-11 17:00:00 28.4 -- -- -- -- 0 -- -- 18
2017-10-11 16:00:00 29.5 -- -- -- -- 0 -- -- 19
2017-10-11 15:00:00 28.9 -- -- -- -- 0 -- -- 20
2017-10-11 14:00:00 26.8 -- -- -- -- 0 -- -- 30
2017-10-11 13:00:00 23.6 -- -- -- -- 0 -- -- 37
2017-10-11 12:00:00 21.3 -- -- -- -- 0 -- -- 41
2017-10-11 11:00:00 19.5 -- -- -- -- 0 -- -- 43
2017-10-11 10:00:00 18.8 -- -- -- -- 0 -- -- 44
2017-10-11 09:00:00 19.3 -- -- -- -- 0 -- -- 39
2017-10-11 08:00:00 19.1 -- -- -- -- 0 -- -- 40
2017-10-11 07:00:00 19.4 -- -- -- -- 0 -- -- 39
2017-10-11 06:00:00 19.4 -- -- -- -- 0 -- -- 39
2017-10-11 05:00:00 19.7 -- -- -- -- 0 -- -- 39
2017-10-11 04:00:00 19.1 -- -- -- -- 0 -- -- 42
2017-10-11 03:00:00 19.8 -- -- -- -- 0 -- -- 40
2017-10-11 02:00:00 20.3 -- -- -- -- 0 -- -- 37
2017-10-11 01:00:00 20.3 -- -- -- -- 0 -- -- 40
2017-10-11 00:00:00 21.4 -- -- -- -- 0 -- -- 37
2017-10-10 23:00:00 21.8 -- -- -- -- 0 -- -- 36
2017-10-10 22:00:00 22 -- -- -- -- 0 -- -- 34
2017-10-10 21:00:00 22.6 -- -- -- -- 0 -- -- 27
2017-10-10 20:00:00 23.9 -- -- -- -- 0 -- -- 25
2017-10-10 19:00:00 25.9 -- -- -- -- 0 -- -- 23
2017-10-10 18:00:00 26.8 -- -- -- -- 0 -- -- 22
2017-10-10 17:00:00 28 -- -- -- -- 0 -- -- 22
2017-10-10 16:00:00 28.9 -- -- -- -- 0 -- -- 21
2017-10-10 15:00:00 28.1 -- -- -- -- 0 -- -- 26
2017-10-10 14:00:00 26.9 -- -- -- -- 0 -- -- 29
2017-10-10 13:00:00 23.5 -- -- -- -- 0 -- -- 35
2017-10-10 12:00:00 21.1 -- -- -- -- 0 -- -- 39
2017-10-10 11:00:00 19 -- -- -- -- 0 -- -- 39
2017-10-10 10:00:00 17.6 -- -- -- -- 0 -- -- 43
2017-10-10 09:00:00 17.5 -- -- -- -- 0 -- -- 43
2017-10-10 08:00:00 18.2 -- -- -- -- 0 -- -- 40
2017-10-10 07:00:00 18.3 -- -- -- -- 0 -- -- 40
2017-10-10 06:00:00 18.9 -- -- -- -- 0 -- -- 37
2017-10-10 05:00:00 19.7 -- -- -- -- 0 -- -- 35
2017-10-10 04:00:00 19.9 -- -- -- -- 0 -- -- 35
2017-10-10 03:00:00 20.5 -- -- -- -- 0 -- -- 34